createdAt,value
2023-05-01T00:01:53.742Z,99683.47
2023-05-01T00:04:22.059Z,99692.03
2023-05-01T00:06:48.717Z,99692.63
2023-05-01T00:09:15.248Z,99679.94
2023-05-01T00:11:42.306Z,99684.31
2023-05-01T00:14:08.824Z,99676.91
2023-05-01T00:16:36.278Z,99664.13
2023-05-01T00:19:04.173Z,99668.41
2023-05-01T00:21:31.065Z,99679.88
2023-05-01T00:23:57.604Z,99669.75
2023-05-01T00:26:27.219Z,99660.03
2023-05-01T00:28:54.239Z,99660.25
2023-05-01T00:31:21.033Z,99651.78
2023-05-01T00:33:47.656Z,99655.50
2023-05-01T00:36:14.241Z,99650.53
2023-05-01T00:38:40.765Z,99654.28
2023-05-01T00:41:07.351Z,99660.28
2023-05-01T00:43:33.859Z,99652.13
2023-05-01T00:46:00.580Z,99640.94
2023-05-01T00:48:27.621Z,99648.97
2023-05-01T00:50:54.808Z,99640.94
2023-05-01T00:53:22.696Z,99644.56
2023-05-01T00:55:49.456Z,99639.06
2023-05-01T00:58:17.776Z,99629.47
2023-05-01T01:03:21.410Z,99631.94
2023-05-01T01:05:57.499Z,99618.28
2023-05-01T01:08:27.298Z,99619.72
2023-05-01T01:11:32.933Z,99627.41
2023-05-01T01:14:08.081Z,99621.19
2023-05-01T01:16:45.394Z,99615.00
2023-05-01T01:19:27.212Z,99619.00
2023-05-01T01:21:58.665Z,99615.47
2023-05-01T01:24:47.907Z,99607.19
2023-05-01T01:27:39.816Z,99604.16
2023-05-01T01:30:44.082Z,99606.75
2023-05-01T01:33:27.381Z,99612.69
2023-05-01T01:35:55.491Z,99606.09
2023-05-01T01:38:58.299Z,99603.44
2023-05-01T01:41:31.774Z,99604.13
2023-05-01T01:44:06.481Z,99601.69
2023-05-01T01:46:37.505Z,99604.03
2023-05-01T01:49:07.875Z,99602.69
2023-05-01T01:51:36.130Z,99602.91
2023-05-01T01:54:04.545Z,99595.88
2023-05-01T01:56:33.097Z,99590.50
2023-05-01T01:59:01.410Z,99587.72
2023-05-01T02:01:29.508Z,99589.53
2023-05-01T02:03:58.051Z,99594.66
2023-05-01T02:06:26.086Z,99599.38
2023-05-01T02:08:54.240Z,99590.78
2023-05-01T02:11:22.196Z,99597.31
2023-05-01T02:13:50.790Z,99598.06
2023-05-01T02:16:19.519Z,99591.44
2023-05-01T02:18:46.680Z,99597.28
2023-05-01T02:21:14.709Z,99585.34
2023-05-01T02:23:41.382Z,99589.72
2023-05-01T02:26:13.704Z,99585.72
2023-05-01T02:28:41.537Z,99578.81
2023-05-01T02:31:08.295Z,99587.34
2023-05-01T02:33:34.848Z,99581.38
2023-05-01T02:36:01.359Z,99586.88
2023-05-01T02:38:29.089Z,99583.94
2023-05-01T02:40:57.882Z,99592.47
2023-05-01T02:43:26.895Z,99584.63
2023-05-01T02:45:55.216Z,99590.25
2023-05-01T02:48:27.738Z,99595.03
2023-05-01T02:50:56.024Z,99588.28
2023-05-01T02:53:22.844Z,99586.25
2023-05-01T02:55:50.432Z,99586.25
2023-05-01T02:58:20.550Z,99597.03
2023-05-01T03:00:49.847Z,99600.22
2023-05-01T03:03:17.408Z,99590.53
2023-05-01T03:05:44.394Z,99588.06
2023-05-01T03:08:11.290Z,99588.34
2023-05-01T03:10:40.821Z,99586.50
2023-05-01T03:13:07.489Z,99595.75
2023-05-01T03:15:33.982Z,99590.50
2023-05-01T03:18:00.705Z,99591.19
2023-05-01T03:20:27.661Z,99587.78
2023-05-01T03:22:54.190Z,99584.38
2023-05-01T03:25:20.786Z,99583.91
2023-05-01T03:27:47.536Z,99587.69
2023-05-01T03:30:14.110Z,99582.09
2023-05-01T03:32:40.696Z,99582.47
2023-05-01T03:35:08.072Z,99582.97
2023-05-01T03:37:34.897Z,99587.34
2023-05-01T03:40:01.885Z,99582.63
2023-05-01T03:42:28.521Z,99581.41
2023-05-01T03:44:55.015Z,99588.78
2023-05-01T03:47:21.600Z,99580.00
2023-05-01T03:49:48.183Z,99589.63
2023-05-01T03:52:14.868Z,99582.16
2023-05-01T03:54:41.465Z,99583.94
2023-05-01T03:57:08.394Z,99573.00
2023-05-01T03:59:35.446Z,99572.53
2023-05-01T04:02:02.038Z,99584.81
2023-05-01T04:04:29.760Z,99583.72
2023-05-01T04:06:56.651Z,99591.19
2023-05-01T04:09:23.147Z,99581.03
2023-05-01T04:11:49.703Z,99595.94
2023-05-01T04:14:16.257Z,99587.56
2023-05-01T04:16:43.222Z,99596.00
2023-05-01T04:19:10.465Z,99594.16
2023-05-01T04:21:37.307Z,99594.19
2023-05-01T04:24:04.118Z,99594.16
2023-05-01T04:26:30.922Z,99600.59
2023-05-01T04:28:57.527Z,99603.63
2023-05-01T04:31:24.134Z,99605.16
2023-05-01T04:33:50.809Z,99606.81
2023-05-01T04:36:17.412Z,99613.16
2023-05-01T04:38:44.266Z,99614.53
2023-05-01T04:41:11.222Z,99606.56
2023-05-01T04:43:37.802Z,99614.03
2023-05-01T04:46:04.821Z,99617.25
2023-05-01T04:48:31.396Z,99620.59
2023-05-01T04:50:58.490Z,99616.00
2023-05-01T04:53:25.243Z,99624.16
2023-05-01T04:55:51.793Z,99624.22
2023-05-01T04:58:18.306Z,99623.72
2023-05-01T05:00:44.877Z,99627.28
2023-05-01T05:03:11.551Z,99636.41
2023-05-01T05:05:38.131Z,99630.69
2023-05-01T05:08:05.458Z,99636.78
2023-05-01T05:10:33.481Z,99635.94
2023-05-01T05:13:00.134Z,99630.16
2023-05-01T05:15:26.729Z,99643.81
2023-05-01T05:17:55.190Z,99641.28
2023-05-01T05:20:23.059Z,99648.81
2023-05-01T05:22:49.685Z,99646.72
2023-05-01T05:25:16.288Z,99652.97
2023-05-01T05:27:42.779Z,99651.13
2023-05-01T05:30:10.398Z,99655.41
2023-05-01T05:32:37.556Z,99651.69
2023-05-01T05:35:04.928Z,99649.72
2023-05-01T05:37:31.491Z,99656.22
2023-05-01T05:39:58.333Z,99666.59
2023-05-01T05:42:24.945Z,99668.09
2023-05-01T05:44:51.570Z,99671.13
2023-05-01T05:47:18.157Z,99667.56
2023-05-01T05:49:44.699Z,99680.63
2023-05-01T05:52:11.369Z,99681.75
2023-05-01T05:54:37.917Z,99682.50
2023-05-01T05:57:04.644Z,99679.72
2023-05-01T05:59:31.219Z,99694.00
2023-05-01T06:01:57.903Z,99683.63
2023-05-01T06:04:24.596Z,99685.91
2023-05-01T06:06:51.245Z,99683.94
2023-05-01T06:09:19.165Z,99691.59
2023-05-01T06:11:46.132Z,99683.38
2023-05-01T06:14:12.691Z,99689.44
2023-05-01T06:16:39.461Z,99684.72
2023-05-01T06:19:06.663Z,99684.78
2023-05-01T06:21:33.921Z,99691.72
2023-05-01T06:24:00.500Z,99689.91
2023-05-01T06:26:27.210Z,99686.00
2023-05-01T06:28:54.727Z,99688.22
2023-05-01T06:31:21.446Z,99682.03
2023-05-01T06:33:47.998Z,99683.00
2023-05-01T06:36:14.549Z,99693.53
2023-05-01T06:38:44.908Z,99678.19
2023-05-01T06:41:11.407Z,99691.88
2023-05-01T06:43:38.017Z,99692.63
2023-05-01T06:46:04.758Z,99693.44
2023-05-01T06:48:31.356Z,99692.94
2023-05-01T06:50:58.037Z,99691.75
2023-05-01T06:53:24.649Z,99692.38
2023-05-01T06:55:51.239Z,99695.22
2023-05-01T06:58:23.892Z,99694.09
2023-05-01T07:00:51.336Z,99696.31
2023-05-01T07:03:18.083Z,99701.03
2023-05-01T07:05:44.744Z,99698.00
2023-05-01T07:08:11.348Z,99696.44
2023-05-01T07:10:39.321Z,99702.00
2023-05-01T07:13:08.232Z,99695.31
2023-05-01T07:15:34.871Z,99708.38
2023-05-01T07:18:03.220Z,99706.75
2023-05-01T07:20:30.274Z,99703.59
2023-05-01T07:22:56.815Z,99704.56
2023-05-01T07:25:23.453Z,99703.34
2023-05-01T07:27:49.974Z,99709.81
2023-05-01T07:30:16.697Z,99709.53
2023-05-01T07:32:43.384Z,99706.88
2023-05-01T07:35:10.001Z,99713.44
2023-05-01T07:37:36.673Z,99710.41
2023-05-01T07:40:03.594Z,99709.16
2023-05-01T07:42:30.703Z,99708.34
2023-05-01T07:44:57.315Z,99702.22
2023-05-01T07:47:24.327Z,99704.00
2023-05-01T07:49:51.002Z,99708.41
2023-05-01T07:52:17.651Z,99714.41
2023-05-01T07:54:49.810Z,99712.94
2023-05-01T07:57:16.611Z,99716.66
2023-05-01T07:59:43.859Z,99718.28
2023-05-01T08:02:10.529Z,99707.66
2023-05-01T08:04:37.159Z,99709.50
2023-05-01T08:07:03.795Z,99708.84
2023-05-01T08:09:31.159Z,99698.03
2023-05-01T08:11:57.657Z,99703.28
2023-05-01T08:14:24.278Z,99704.16
2023-05-01T08:16:55.386Z,99706.66
2023-05-01T08:19:22.281Z,99705.16
2023-05-01T08:21:49.062Z,99704.47
2023-05-01T08:24:15.639Z,99699.72
2023-05-01T08:26:42.423Z,99705.59
2023-05-01T08:29:09.790Z,99702.03
2023-05-01T08:31:38.028Z,99712.38
2023-05-01T08:34:05.105Z,99707.13
2023-05-01T08:36:32.936Z,99704.03
2023-05-01T08:38:59.545Z,99704.97
2023-05-01T08:41:27.903Z,99709.00
2023-05-01T08:43:57.144Z,99708.00
2023-05-01T08:46:51.838Z,99707.03
2023-05-01T08:49:21.372Z,99706.22
2023-05-01T08:51:52.629Z,99692.16
2023-05-01T08:54:20.547Z,99709.41
2023-05-01T08:56:47.989Z,99718.22
2023-05-01T08:59:15.214Z,99706.88
2023-05-01T09:01:43.357Z,99714.41
2023-05-01T09:04:12.251Z,99707.78
2023-05-01T09:06:39.061Z,99706.38
2023-05-01T09:09:06.256Z,99705.44
2023-05-01T09:11:33.083Z,99702.41
2023-05-01T09:14:01.498Z,99708.06
2023-05-01T09:16:29.811Z,99710.81
2023-05-01T09:18:58.925Z,99707.16
2023-05-01T09:21:28.019Z,99716.03
2023-05-01T09:23:54.606Z,99711.84
2023-05-01T09:26:22.055Z,99719.66
2023-05-01T09:28:48.865Z,99707.94
2023-05-01T09:31:29.944Z,99717.53
2023-05-01T09:33:58.584Z,99713.56
2023-05-01T09:36:27.985Z,99712.78
2023-05-01T09:38:54.817Z,99711.72
2023-05-01T09:41:22.359Z,99714.91
2023-05-01T09:43:58.211Z,99722.75
2023-05-01T09:46:26.570Z,99725.03
2023-05-01T09:48:57.191Z,99719.47
2023-05-01T09:51:28.129Z,99723.06
2023-05-01T09:54:02.198Z,99716.41
2023-05-01T09:56:34.112Z,99718.63
2023-05-01T09:59:19.529Z,99720.00
2023-05-01T10:01:48.283Z,99721.88
2023-05-01T10:04:14.867Z,99714.38
2023-05-01T10:06:41.812Z,99714.31
2023-05-01T10:09:17.047Z,99719.97
2023-05-01T10:11:59.231Z,99716.97
2023-05-01T10:14:28.179Z,99721.53
2023-05-01T10:16:54.918Z,99722.63
2023-05-01T10:19:21.928Z,99717.25
2023-05-01T10:21:48.896Z,99722.13
2023-05-01T10:24:17.279Z,99731.00
2023-05-01T10:26:44.193Z,99722.78
2023-05-01T10:29:12.060Z,99725.00
2023-05-01T10:31:40.660Z,99714.78
2023-05-01T10:34:09.173Z,99719.44
2023-05-01T10:36:45.032Z,99724.97
2023-05-01T10:39:32.392Z,99723.81
2023-05-01T10:41:59.014Z,99725.22
2023-05-01T10:44:27.103Z,99728.75
2023-05-01T10:46:54.615Z,99727.47
2023-05-01T10:49:21.668Z,99723.97
2023-05-01T10:51:58.095Z,99720.31
2023-05-01T10:54:29.325Z,99717.78
2023-05-01T10:57:03.234Z,99715.31
2023-05-01T10:59:58.867Z,99710.78
2023-05-01T11:02:26.627Z,99717.25
2023-05-01T11:04:56.150Z,99731.94
2023-05-01T11:07:23.976Z,99718.50
2023-05-01T11:09:55.814Z,99721.28
2023-05-01T11:12:49.631Z,99718.94
2023-05-01T11:15:32.917Z,99714.47
2023-05-01T11:18:03.989Z,99716.53
2023-05-01T11:20:50.974Z,99724.66
2023-05-01T11:23:18.128Z,99718.81
2023-05-01T11:25:47.261Z,99725.13
2023-05-01T11:28:19.514Z,99711.00
2023-05-01T11:30:48.696Z,99716.41
2023-05-01T11:33:22.645Z,99720.72
2023-05-01T11:35:56.995Z,99716.97
2023-05-01T11:38:23.744Z,99711.34
2023-05-01T11:40:56.627Z,99724.03
2023-05-01T11:43:23.562Z,99720.56
2023-05-01T11:45:54.666Z,99719.44
2023-05-01T11:48:21.648Z,99715.44
2023-05-01T11:50:48.240Z,99731.97
2023-05-01T11:53:16.013Z,99716.13
2023-05-01T11:55:42.817Z,99714.03
2023-05-01T11:58:09.488Z,99713.00
2023-05-01T12:00:38.459Z,99711.22
2023-05-01T12:03:06.583Z,99721.34
2023-05-01T12:05:37.052Z,99705.44
2023-05-01T12:08:10.033Z,99711.69
2023-05-01T12:10:37.566Z,99712.69
2023-05-01T12:13:05.410Z,99709.91
2023-05-01T12:15:36.700Z,99710.47
2023-05-01T12:18:05.091Z,99704.75
2023-05-01T12:20:39.484Z,99716.94
2023-05-01T12:23:07.507Z,99714.06
2023-05-01T12:25:35.116Z,99712.34
2023-05-01T12:28:03.740Z,99722.03
2023-05-01T12:30:30.742Z,99710.09
2023-05-01T12:32:58.104Z,99710.00
2023-05-01T12:35:31.317Z,99710.88
2023-05-01T12:37:58.552Z,99718.97
2023-05-01T12:40:26.079Z,99710.56
2023-05-01T12:42:59.138Z,99712.28
2023-05-01T12:45:25.991Z,99714.34
2023-05-01T12:47:52.817Z,99719.13
2023-05-01T12:50:20.897Z,99721.97
2023-05-01T12:52:48.517Z,99727.28
2023-05-01T12:55:15.384Z,99721.75
2023-05-01T12:57:54.673Z,99726.63
2023-05-01T13:00:21.840Z,99727.72
